createdAt,value
2019-04-11T00:00:31.384Z,61.40
2019-04-11T00:01:36.788Z,61.19
2019-04-11T00:02:33.059Z,60.99
2019-04-11T00:03:31.355Z,61.92
2019-04-11T00:04:32.303Z,61.27
2019-04-11T00:05:31.273Z,61.92
2019-04-11T00:06:31.806Z,62.02
2019-04-11T00:07:32.092Z,62.34
2019-04-11T00:08:32.181Z,62.13
2019-04-11T00:09:32.494Z,62.76
2019-04-11T00:10:31.343Z,62.47
2019-04-11T00:11:31.206Z,62.45
2019-04-11T00:12:31.188Z,62.37
2019-04-11T00:13:33.432Z,62.68
2019-04-11T00:14:31.719Z,62.99
2019-04-11T00:15:31.155Z,62.78
2019-04-11T00:16:31.146Z,62.88
2019-04-11T00:17:32.130Z,63.93
2019-04-11T00:18:31.148Z,64.14
2019-04-11T00:19:31.562Z,63.62
2019-04-11T00:20:31.878Z,64.03
2019-04-11T00:21:31.100Z,64.27
2019-04-11T00:22:31.084Z,63.64
2019-04-11T00:23:32.298Z,64.34
2019-04-11T00:24:31.383Z,64.27
2019-04-11T00:25:31.668Z,64.48
2019-04-11T00:26:31.044Z,64.37
2019-04-11T00:27:31.028Z,65.10
2019-04-11T00:28:31.973Z,65.00
2019-04-11T00:29:31.285Z,65.41
2019-04-11T00:30:30.992Z,64.40
2019-04-11T00:31:30.991Z,65.44
2019-04-11T00:32:31.646Z,65.72
2019-04-11T00:33:31.953Z,65.52
2019-04-11T00:34:31.110Z,65.55
2019-04-11T00:35:31.447Z,65.75
2019-04-11T00:36:30.928Z,65.65
2019-04-11T00:37:30.930Z,65.96
2019-04-11T00:38:32.008Z,65.86
2019-04-11T00:39:31.869Z,66.06
2019-04-11T00:40:30.891Z,66.06
2019-04-11T00:41:31.326Z,66.03
2019-04-11T00:42:30.866Z,66.38
2019-04-11T00:43:36.944Z,66.27
2019-04-11T00:44:32.758Z,66.27
2019-04-11T00:45:31.795Z,66.48
2019-04-11T00:46:32.001Z,66.59
2019-04-11T00:47:31.178Z,66.59
2019-04-11T00:48:30.803Z,66.69
2019-04-11T00:49:30.808Z,66.69
2019-04-11T00:50:31.603Z,66.69
2019-04-11T00:51:31.695Z,66.90
2019-04-11T00:52:31.476Z,66.90
2019-04-11T00:53:30.968Z,67.21
2019-04-11T00:54:31.067Z,67.14
2019-04-11T00:55:31.482Z,66.69
2019-04-11T00:56:30.708Z,67.21
2019-04-11T00:57:30.767Z,67.32
2019-04-11T00:58:31.800Z,67.24
2019-04-11T00:59:30.671Z,67.21
2019-04-11T01:00:31.283Z,67.35
2019-04-11T01:01:31.619Z,67.55
2019-04-11T01:02:31.548Z,67.45
2019-04-11T01:03:30.660Z,67.97
2019-04-11T01:04:30.676Z,67.76
2019-04-11T01:05:31.723Z,67.86
2019-04-11T01:06:30.598Z,67.76
2019-04-11T01:07:31.134Z,67.66
2019-04-11T01:08:31.477Z,67.66
2019-04-11T01:09:30.668Z,68.07
2019-04-11T01:10:30.562Z,68.32
2019-04-11T01:11:30.550Z,68.32
2019-04-11T01:12:30.556Z,68.32
2019-04-11T01:13:41.468Z,68.42
2019-04-11T01:14:32.058Z,68.21
2019-04-11T01:15:31.379Z,68.84
2019-04-11T01:16:30.521Z,68.42
2019-04-11T01:17:31.519Z,68.84
2019-04-11T01:18:30.469Z,69.28
2019-04-11T01:19:30.962Z,69.18
2019-04-11T01:20:31.414Z,69.25
2019-04-11T01:21:30.654Z,69.49
2019-04-11T01:22:30.422Z,69.15
2019-04-11T01:23:31.105Z,69.38
2019-04-11T01:24:31.438Z,69.46
2019-04-11T01:25:30.679Z,69.25
2019-04-11T01:26:30.383Z,69.67
2019-04-11T01:27:30.373Z,69.59
2019-04-11T01:28:31.015Z,69.81
2019-04-11T01:29:31.333Z,69.49
2019-04-11T01:30:31.708Z,69.59
2019-04-11T01:31:30.496Z,69.91
2019-04-11T01:32:30.587Z,69.28
2019-04-11T01:33:30.307Z,69.91
2019-04-11T01:34:30.778Z,69.28
2019-04-11T01:35:31.087Z,69.59
2019-04-11T01:36:31.131Z,69.49
2019-04-11T01:37:31.394Z,69.70
2019-04-11T01:38:30.505Z,70.43
2019-04-11T01:39:30.282Z,69.59
2019-04-11T01:40:30.236Z,69.59
2019-04-11T01:41:30.905Z,69.91
2019-04-11T01:42:31.209Z,69.91
2019-04-11T01:43:30.728Z,70.22
2019-04-11T01:44:30.433Z,70.32
2019-04-11T01:45:30.179Z,70.12
2019-04-11T01:46:30.158Z,70.12
2019-04-11T01:47:30.915Z,70.12
2019-04-11T01:48:31.168Z,70.43
2019-04-11T01:49:30.370Z,70.43
2019-04-11T01:50:30.128Z,70.43
2019-04-11T01:51:30.103Z,70.32
2019-04-11T01:52:30.646Z,70.12
2019-04-11T01:53:31.038Z,70.22
2019-04-11T01:54:30.104Z,70.12
2019-04-11T01:55:30.064Z,69.49
2019-04-11T01:56:30.067Z,69.91
2019-04-11T01:57:30.038Z,69.91
2019-04-11T01:58:30.932Z,70.12
2019-04-11T01:59:31.178Z,70.43
2019-04-11T02:00:30.200Z,70.12
2019-04-11T02:01:30.605Z,70.32
2019-04-11T02:02:30.637Z,70.32
2019-04-11T02:03:30.852Z,70.53
2019-04-11T02:04:30.108Z,70.43
2019-04-11T02:05:29.950Z,70.74
2019-04-11T02:06:29.950Z,70.22
2019-04-11T02:07:30.949Z,70.74
2019-04-11T02:08:29.915Z,70.95
2019-04-11T02:09:30.406Z,70.53
2019-04-11T02:10:29.896Z,70.95
2019-04-11T02:11:29.909Z,70.74
2019-04-11T02:12:30.983Z,71.05
2019-04-11T02:13:30.069Z,70.53
2019-04-11T02:14:29.859Z,70.95
2019-04-11T02:15:30.426Z,70.95
2019-04-11T02:16:29.827Z,70.95
2019-04-11T02:17:30.719Z,70.64
2019-04-11T02:18:29.814Z,70.95
2019-04-11T02:19:29.801Z,70.84
2019-04-11T02:20:29.788Z,71.30
2019-04-11T02:21:29.782Z,71.58
2019-04-11T02:22:30.545Z,70.84
2019-04-11T02:23:30.855Z,71.09
2019-04-11T02:24:30.032Z,71.05
2019-04-11T02:25:30.383Z,71.26
2019-04-11T02:26:29.719Z,70.43
2019-04-11T02:27:30.765Z,71.47
2019-04-11T02:28:30.828Z,71.47
2019-04-11T02:29:29.857Z,71.26
2019-04-11T02:30:30.535Z,71.26
2019-04-11T02:31:30.571Z,71.30
2019-04-11T02:32:29.706Z,71.40
2019-04-11T02:33:30.636Z,71.37
2019-04-11T02:34:29.828Z,71.26
2019-04-11T02:35:31.104Z,70.95
2019-04-11T02:36:31.392Z,71.05
2019-04-11T02:37:31.526Z,71.09
2019-04-11T02:38:30.507Z,70.95
2019-04-11T02:39:32.908Z,71.09
2019-04-11T02:40:30.554Z,71.05
2019-04-11T02:41:30.295Z,71.26
2019-04-11T02:42:30.686Z,70.98
2019-04-11T02:43:29.680Z,71.05
2019-04-11T02:44:45.763Z,70.78
2019-04-11T02:45:42.664Z,71.19
2019-04-11T02:46:40.875Z,71.05
2019-04-11T02:47:32.869Z,72.13
2019-04-11T02:48:31.069Z,71.68
2019-04-11T02:49:31.127Z,71.37
2019-04-11T02:50:29.961Z,71.05
2019-04-11T02:51:31.032Z,71.30
2019-04-11T02:52:29.436Z,72.24
2019-04-11T02:53:30.701Z,71.81
2019-04-11T02:54:30.651Z,71.81
2019-04-11T02:55:29.574Z,71.09
2019-04-11T02:56:31.088Z,71.09
2019-04-11T02:57:30.058Z,71.50
2019-04-11T02:58:30.037Z,70.88
2019-04-11T02:59:30.309Z,71.92
2019-04-11T03:00:30.999Z,70.98
2019-04-11T03:01:29.337Z,71.43
2019-04-11T03:02:30.806Z,71.64
2019-04-11T03:03:29.861Z,72.27
2019-04-11T03:04:30.841Z,71.85
2019-04-11T03:05:30.917Z,72.16
2019-04-11T03:06:30.846Z,71.75
2019-04-11T03:07:30.014Z,71.88
2019-04-11T03:08:31.749Z,72.68
2019-04-11T03:09:29.681Z,71.85
2019-04-11T03:10:31.283Z,71.43
2019-04-11T03:11:30.329Z,72.09
2019-04-11T03:12:29.793Z,72.61
2019-04-11T03:13:29.556Z,72.30
2019-04-11T03:14:44.724Z,71.98
2019-04-11T03:15:44.641Z,72.41
2019-04-11T03:16:42.857Z,71.98
2019-04-11T03:17:35.851Z,71.67
2019-04-11T03:18:46.152Z,72.09
2019-04-11T03:19:43.965Z,72.19
2019-04-11T03:20:37.117Z,72.09
2019-04-11T03:21:33.185Z,72.09
2019-04-11T03:22:30.122Z,72.51
2019-04-11T03:23:29.109Z,72.19
2019-04-11T03:24:31.055Z,72.30
2019-04-11T03:25:30.666Z,72.44
2019-04-11T03:26:29.277Z,72.54
2019-04-11T03:27:30.480Z,72.33
2019-04-11T03:28:31.334Z,72.64
2019-04-11T03:29:30.894Z,72.82
2019-04-11T03:30:48.916Z,72.64
2019-04-11T03:32:13.320Z,72.44
2019-04-11T03:33:28.972Z,73.17
2019-04-11T03:37:13.879Z,73.83
2019-04-11T03:37:53.669Z,74.14
2019-04-11T03:38:55.241Z,73.90
2019-04-11T03:39:50.687Z,74.21
2019-04-11T03:40:46.647Z,74.04
2019-04-11T03:41:50.387Z,74.14
2019-04-11T03:42:42.972Z,73.79
2019-04-11T03:43:39.552Z,74.24
2019-04-11T03:44:37.185Z,74.35
2019-04-11T03:45:47.958Z,74.66
2019-04-11T03:46:48.309Z,74.66
2019-04-11T03:47:40.892Z,74.42
2019-04-11T03:48:42.163Z,74.56
2019-04-11T03:49:39.918Z,75.39
2019-04-11T03:50:32.218Z,75.18
2019-04-11T03:51:29.703Z,75.08
2019-04-11T03:52:30.431Z,75.60
2019-04-11T03:53:29.913Z,75.81
2019-04-11T03:54:29.457Z,76.02
2019-04-11T03:55:30.736Z,75.71
2019-04-11T03:56:28.776Z,75.71
2019-04-11T03:57:29.881Z,75.74
2019-04-11T03:58:29.450Z,76.26
2019-04-11T03:59:29.038Z,76.37
2019-04-11T04:00:35.448Z,76.37
2019-04-11T04:01:29.777Z,76.68
2019-04-11T04:02:28.691Z,76.47
2019-04-11T04:03:29.665Z,77.00
2019-04-11T04:04:29.144Z,76.89
2019-04-11T04:05:32.367Z,76.93
2019-04-11T04:06:31.007Z,77.14
2019-04-11T04:07:29.671Z,77.10
2019-04-11T04:08:29.748Z,77.45
2019-04-11T04:09:29.518Z,77.34
2019-04-11T04:10:29.615Z,77.45
2019-04-11T04:11:31.615Z,77.66
2019-04-11T04:12:29.353Z,77.97
2019-04-11T04:13:31.674Z,77.55
2019-04-11T04:14:29.056Z,77.87
2019-04-11T04:15:40.106Z,77.55
2019-04-11T04:16:35.975Z,78.08
2019-04-11T04:17:30.791Z,78.28
2019-04-11T04:18:29.901Z,77.97
2019-04-11T04:19:30.380Z,78.08
2019-04-11T04:20:28.984Z,77.97
2019-04-11T04:21:28.904Z,78.39
2019-04-11T04:22:29.440Z,77.97
2019-04-11T04:23:29.518Z,78.18
2019-04-11T04:24:32.143Z,78.39
2019-04-11T04:25:29.446Z,78.28
2019-04-11T04:26:29.197Z,78.28
2019-04-11T04:27:30.333Z,78.18
2019-04-11T04:28:29.433Z,78.22
2019-04-11T04:29:29.344Z,78.49
2019-04-11T04:30:29.788Z,78.49
2019-04-11T04:31:28.685Z,78.18
2019-04-11T04:32:30.254Z,78.08
2019-04-11T04:33:29.466Z,77.76
2019-04-11T04:34:28.604Z,78.18
2019-04-11T04:35:28.603Z,78.18
2019-04-11T04:36:29.424Z,77.69
2019-04-11T04:37:29.572Z,77.00
2019-04-11T04:38:29.547Z,77.10
2019-04-11T04:39:29.827Z,77.41
2019-04-11T04:40:42.214Z,77.76
2019-04-11T04:41:37.746Z,78.49
2019-04-11T04:42:35.977Z,78.08
2019-04-11T04:43:30.102Z,77.97
2019-04-11T04:44:29.719Z,78.08
2019-04-11T04:45:30.040Z,78.18
2019-04-11T04:46:45.233Z,78.08
2019-04-11T04:47:37.325Z,78.70
2019-04-11T04:48:30.147Z,78.49
2019-04-11T04:49:29.955Z,78.46
2019-04-11T04:50:28.679Z,77.73
2019-04-11T04:51:28.932Z,77.83
2019-04-11T04:52:29.677Z,77.48
2019-04-11T04:53:28.476Z,76.82
2019-04-11T04:54:28.473Z,76.06
2019-04-11T04:55:30.160Z,74.46
2019-04-11T04:56:31.643Z,73.69
2019-04-11T04:57:29.720Z,71.75
2019-04-11T04:58:29.326Z,71.09
2019-04-11T04:59:28.630Z,70.85
2019-04-11T05:00:29.651Z,69.78
2019-04-11T05:01:29.117Z,68.84
2019-04-11T05:02:28.704Z,68.77
2019-04-11T05:03:29.652Z,69.19
2019-04-11T05:04:29.633Z,68.74
2019-04-11T05:05:29.230Z,68.50
2019-04-11T05:06:28.230Z,67.64
2019-04-11T05:07:32.208Z,67.12
2019-04-11T05:08:30.453Z,67.02
2019-04-11T05:09:28.004Z,67.12
2019-04-11T05:10:28.490Z,67.02
2019-04-11T05:11:28.403Z,67.12
2019-04-11T05:12:28.207Z,67.15
2019-04-11T05:13:28.145Z,67.88
2019-04-11T05:14:29.427Z,67.57
2019-04-11T05:15:28.279Z,67.12
2019-04-11T05:16:27.908Z,67.22
2019-04-11T05:17:28.938Z,67.15
2019-04-11T05:18:27.960Z,67.25
2019-04-11T05:19:28.571Z,66.91
2019-04-11T05:20:28.166Z,66.50
2019-04-11T05:21:27.841Z,65.94
2019-04-11T05:22:27.833Z,65.42
2019-04-11T05:23:27.835Z,66.15
2019-04-11T05:24:28.309Z,66.50
2019-04-11T05:25:28.628Z,66.25
2019-04-11T05:26:27.925Z,65.94
2019-04-11T05:27:27.795Z,65.08
2019-04-11T05:28:27.777Z,64.30
2019-04-11T05:29:27.759Z,63.85
2019-04-11T05:30:27.743Z,63.06
2019-04-11T05:31:27.729Z,63.50
2019-04-11T05:32:27.729Z,63.89
2019-04-11T05:33:27.723Z,62.71
2019-04-11T05:34:28.044Z,63.06
2019-04-11T05:35:27.695Z,63.78
2019-04-11T05:36:28.295Z,62.82
2019-04-11T05:37:27.688Z,62.92
2019-04-11T05:38:27.692Z,62.89
2019-04-11T05:39:27.695Z,61.18
2019-04-11T05:40:28.130Z,60.30
2019-04-11T05:41:27.625Z,62.82
2019-04-11T05:42:27.613Z,62.09
2019-04-11T05:43:31.408Z,63.13
2019-04-11T05:44:28.597Z,62.48
2019-04-11T05:45:27.591Z,61.76
2019-04-11T05:46:35.288Z,61.00
2019-04-11T05:47:29.614Z,60.97
2019-04-11T05:48:28.652Z,60.42
2019-04-11T05:49:29.075Z,59.88
2019-04-11T05:50:28.568Z,59.64
2019-04-11T05:51:38.910Z,58.84
2019-04-11T05:52:31.075Z,59.39
2019-04-11T05:53:27.950Z,59.99
2019-04-11T05:54:28.092Z,61.88
2019-04-11T05:55:28.012Z,62.37
2019-04-11T05:56:27.847Z,61.38
2019-04-11T05:57:34.091Z,59.91
2019-04-11T05:58:28.459Z,59.16
2019-04-11T05:59:27.429Z,58.69
2019-04-11T06:00:28.423Z,59.70
2019-04-11T06:01:27.993Z,60.25
2019-04-11T06:02:27.399Z,60.14
2019-04-11T06:03:28.311Z,60.25
2019-04-11T06:04:29.926Z,60.25
2019-04-11T06:05:31.816Z,60.58
2019-04-11T06:06:31.905Z,62.09
2019-04-11T06:07:29.302Z,61.86
2019-04-11T06:08:30.009Z,61.55
2019-04-11T06:09:30.256Z,61.41
2019-04-11T06:10:28.361Z,61.86
2019-04-11T06:11:28.447Z,61.21
2019-04-11T06:12:27.541Z,61.41
2019-04-11T06:13:27.280Z,61.15
2019-04-11T06:14:27.261Z,59.41
2019-04-11T06:15:27.256Z,57.84
2019-04-11T06:16:36.951Z,56.57
2019-04-11T06:17:28.233Z,56.60
2019-04-11T06:18:33.117Z,57.24
2019-04-11T06:19:28.317Z,57.65
2019-04-11T06:20:27.239Z,57.32
2019-04-11T06:21:28.283Z,57.04
2019-04-11T06:22:27.176Z,57.65
2019-04-11T06:23:27.565Z,56.77
2019-04-11T06:24:27.996Z,57.14
2019-04-11T06:25:28.261Z,58.07
2019-04-11T06:26:27.150Z,58.07
2019-04-11T06:27:28.338Z,58.09
2019-04-11T06:28:27.749Z,57.86
2019-04-11T06:29:28.395Z,56.93
2019-04-11T06:30:28.292Z,56.62
2019-04-11T06:31:27.089Z,57.34
2019-04-11T06:32:27.873Z,57.99
2019-04-11T06:33:27.057Z,57.65
2019-04-11T06:34:27.111Z,56.81
2019-04-11T06:35:28.205Z,56.57
2019-04-11T06:36:28.113Z,56.73
2019-04-11T06:37:27.735Z,56.90
2019-04-11T06:38:26.999Z,56.93
2019-04-11T06:39:27.419Z,56.16
2019-04-11T06:40:27.766Z,56.60
2019-04-11T06:41:26.989Z,56.60
2019-04-11T06:42:28.610Z,57.42
2019-04-11T06:43:27.842Z,56.34
2019-04-11T06:44:28.013Z,56.21
2019-04-11T06:45:27.246Z,55.18
2019-04-11T06:46:27.185Z,55.05
2019-04-11T06:47:27.200Z,53.38
2019-04-11T06:48:26.914Z,53.06
2019-04-11T06:49:26.878Z,55.07
2019-04-11T06:50:27.125Z,55.64
2019-04-11T06:51:28.074Z,56.23
2019-04-11T06:52:26.844Z,55.72
2019-04-11T06:53:27.984Z,55.66
2019-04-11T06:54:26.880Z,54.53
2019-04-11T06:55:26.837Z,55.23
2019-04-11T06:56:27.306Z,55.49
2019-04-11T06:57:26.792Z,54.46
2019-04-11T06:58:27.654Z,55.10
2019-04-11T06:59:26.776Z,55.41
2019-04-11T07:00:27.302Z,56.34
2019-04-11T07:01:27.867Z,54.86
2019-04-11T07:02:27.832Z,54.51
2019-04-11T07:03:29.249Z,53.25
2019-04-11T07:04:27.368Z,52.98
2019-04-11T07:05:26.832Z,55.41
2019-04-11T07:06:27.301Z,55.51
2019-04-11T07:07:28.784Z,56.60
2019-04-11T07:08:26.672Z,57.27
2019-04-11T07:09:26.660Z,57.89
2019-04-11T07:10:26.728Z,56.90
2019-04-11T07:11:27.614Z,57.34
2019-04-11T07:12:26.646Z,57.58
2019-04-11T07:13:26.628Z,57.68
2019-04-11T07:14:26.999Z,57.27
2019-04-11T07:15:27.229Z,56.90
2019-04-11T07:16:27.611Z,56.23
2019-04-11T07:17:27.532Z,55.07
2019-04-11T07:18:26.926Z,54.77
2019-04-11T07:19:26.576Z,55.30
2019-04-11T07:20:27.251Z,55.38
2019-04-11T07:21:27.589Z,54.43
2019-04-11T07:22:26.522Z,53.78
2019-04-11T07:23:26.569Z,54.20
2019-04-11T07:24:26.497Z,54.33
2019-04-11T07:25:26.901Z,53.48
2019-04-11T07:26:27.363Z,54.69
2019-04-11T07:27:26.465Z,54.33
2019-04-11T07:28:27.359Z,53.27
2019-04-11T07:29:26.442Z,51.42
2019-04-11T07:30:26.443Z,53.19
2019-04-11T07:31:27.661Z,53.40
2019-04-11T07:32:27.704Z,52.94
2019-04-11T07:33:26.707Z,51.57
2019-04-11T07:34:27.320Z,50.98
2019-04-11T07:35:27.681Z,51.91
2019-04-11T07:36:27.395Z,52.24
2019-04-11T07:37:26.354Z,51.09
2019-04-11T07:38:27.261Z,52.06
2019-04-11T07:39:26.556Z,52.37
2019-04-11T07:40:27.090Z,52.81
2019-04-11T07:41:26.310Z,53.42
2019-04-11T07:42:26.569Z,51.78
2019-04-11T07:43:26.892Z,51.46
2019-04-11T07:44:28.703Z,52.93
2019-04-11T07:45:26.416Z,53.09
2019-04-11T07:46:27.368Z,51.16
2019-04-11T07:47:27.645Z,49.23
2019-04-11T07:48:27.243Z,51.09
2019-04-11T07:49:26.516Z,50.57
2019-04-11T07:50:27.424Z,50.36
2019-04-11T07:51:27.472Z,50.54
2019-04-11T07:52:27.580Z,50.24
2019-04-11T07:53:26.317Z,49.21
2019-04-11T07:54:26.169Z,48.49
2019-04-11T07:55:26.161Z,48.99
2019-04-11T07:56:27.320Z,50.66
2019-04-11T07:57:26.382Z,51.39
2019-04-11T07:58:26.362Z,51.23
2019-04-11T07:59:27.164Z,51.10
2019-04-11T08:00:36.648Z,51.59
2019-04-11T08:01:27.155Z,51.39
2019-04-11T08:02:26.828Z,51.15
2019-04-11T08:03:26.069Z,50.08
2019-04-11T08:04:26.090Z,48.41
2019-04-11T08:05:26.058Z,48.84
2019-04-11T08:06:26.508Z,51.39
2019-04-11T08:07:26.033Z,50.70
2019-04-11T08:08:26.016Z,48.59
2019-04-11T08:09:26.773Z,46.97
2019-04-11T08:10:27.166Z,46.84
2019-04-11T08:11:25.997Z,46.01
2019-04-11T08:12:27.600Z,46.22
2019-04-11T08:13:26.245Z,46.73
2019-04-11T08:14:26.592Z,45.37
2019-04-11T08:15:25.937Z,46.33
2019-04-11T08:16:26.739Z,46.30
2019-04-11T08:17:35.721Z,44.92
2019-04-11T08:18:26.902Z,44.62
2019-04-11T08:19:26.844Z,45.81
2019-04-11T08:20:25.886Z,47.45
2019-04-11T08:21:26.173Z,47.13
2019-04-11T08:22:25.871Z,47.13
2019-04-11T08:23:25.856Z,47.91
2019-04-11T08:24:28.386Z,48.94
2019-04-11T08:25:26.000Z,45.13
2019-04-11T08:26:26.260Z,44.29
2019-04-11T08:27:25.811Z,43.81
2019-04-11T08:28:26.937Z,42.25
2019-04-11T08:29:27.069Z,42.27
2019-04-11T08:30:26.590Z,43.61
2019-04-11T08:31:26.473Z,45.83
2019-04-11T08:32:25.761Z,46.47
2019-04-11T08:33:26.744Z,46.12
2019-04-11T08:34:26.991Z,45.87
2019-04-11T08:35:26.265Z,44.26
2019-04-11T08:36:26.092Z,41.86
2019-04-11T08:37:25.722Z,44.10
2019-04-11T08:38:26.699Z,46.98
2019-04-11T08:39:25.793Z,48.60
2019-04-11T08:40:25.998Z,48.88
2019-04-11T08:41:25.660Z,49.61
2019-04-11T08:42:25.689Z,48.86
2019-04-11T08:43:26.813Z,48.14
2019-04-11T08:44:25.967Z,48.86
2019-04-11T08:45:25.833Z,47.44
2019-04-11T08:46:26.718Z,48.95
2019-04-11T08:47:39.354Z,48.44
2019-04-11T08:48:26.685Z,48.90
2019-04-11T08:49:26.645Z,49.60
2019-04-11T08:50:26.184Z,49.08
2019-04-11T08:51:25.555Z,48.87
2019-04-11T08:52:25.540Z,48.97
2019-04-11T08:53:26.766Z,48.85
2019-04-11T08:54:25.822Z,47.51
2019-04-11T08:55:25.514Z,48.97
2019-04-11T08:56:25.504Z,47.61
2019-04-11T08:57:25.497Z,47.61
2019-04-11T08:58:26.643Z,46.27
2019-04-11T08:59:25.476Z,46.51
2019-04-11T09:00:26.268Z,46.62
2019-04-11T09:01:25.448Z,46.47
2019-04-11T09:02:25.426Z,44.45
2019-04-11T09:03:25.994Z,43.30
2019-04-11T09:04:26.014Z,43.98
2019-04-11T09:05:25.404Z,43.90
2019-04-11T09:06:25.388Z,43.79
2019-04-11T09:07:25.481Z,45.13
2019-04-11T09:08:26.722Z,45.42
2019-04-11T09:09:25.389Z,45.36
2019-04-11T09:10:26.172Z,43.65
2019-04-11T09:11:25.623Z,42.62
2019-04-11T09:12:26.706Z,41.08
2019-04-11T09:13:25.316Z,41.51
2019-04-11T09:14:26.388Z,42.13
2019-04-11T09:15:25.292Z,41.16
2019-04-11T09:16:25.780Z,41.68
2019-04-11T09:17:26.167Z,39.42
2019-04-11T09:18:25.992Z,40.36
2019-04-11T09:19:25.249Z,40.38
2019-04-11T09:20:25.410Z,41.16
2019-04-11T09:21:26.468Z,42.22
2019-04-11T09:22:25.214Z,43.81
2019-04-11T09:23:25.894Z,43.93
2019-04-11T09:24:26.313Z,44.74
2019-04-11T09:25:25.327Z,43.85
2019-04-11T09:26:25.670Z,45.73
2019-04-11T09:27:25.152Z,45.61
2019-04-11T09:28:25.139Z,45.38
2019-04-11T09:29:26.135Z,42.88
2019-04-11T09:30:25.131Z,42.88
2019-04-11T09:31:25.510Z,42.06
2019-04-11T09:32:25.594Z,42.47
2019-04-11T09:33:25.086Z,43.71
2019-04-11T09:34:25.925Z,44.14
2019-04-11T09:35:25.070Z,44.06
2019-04-11T09:36:26.048Z,44.06
2019-04-11T09:37:25.382Z,44.39
2019-04-11T09:38:25.039Z,45.01
2019-04-11T09:39:25.013Z,43.87
2019-04-11T09:40:26.404Z,43.96
2019-04-11T09:41:25.010Z,43.90
2019-04-11T09:42:26.121Z,41.16
2019-04-11T09:43:26.186Z,40.95
2019-04-11T09:44:24.969Z,41.09
2019-04-11T09:45:25.735Z,41.44
2019-04-11T09:46:26.122Z,42.37
2019-04-11T09:47:24.957Z,42.69
2019-04-11T09:48:26.229Z,42.68
2019-04-11T09:49:24.912Z,42.18
2019-04-11T09:50:24.898Z,42.69
2019-04-11T09:51:27.351Z,42.41
2019-04-11T09:52:24.893Z,43.23
2019-04-11T09:53:26.085Z,41.58
2019-04-11T09:54:26.099Z,41.27
2019-04-11T09:55:25.503Z,41.91
2019-04-11T09:56:24.951Z,42.43
2019-04-11T09:57:24.986Z,42.10
2019-04-11T09:58:25.318Z,41.25
2019-04-11T09:59:25.072Z,41.27
2019-04-11T10:00:24.783Z,41.77
2019-04-11T10:01:24.780Z,40.31
2019-04-11T10:02:25.356Z,40.29
2019-04-11T10:03:25.603Z,40.25
2019-04-11T10:04:25.637Z,39.77
2019-04-11T10:05:24.760Z,40.70
2019-04-11T10:06:24.785Z,41.20
2019-04-11T10:07:25.779Z,40.15
2019-04-11T10:08:24.705Z,39.26
2019-04-11T10:09:26.012Z,40.22
2019-04-11T10:10:24.709Z,41.79
2019-04-11T10:11:24.702Z,42.11
2019-04-11T10:12:24.677Z,42.32
2019-04-11T10:13:25.010Z,42.34
2019-04-11T10:14:25.767Z,42.24
2019-04-11T10:15:24.622Z,41.29
2019-04-11T10:16:24.634Z,42.24
2019-04-11T10:17:26.389Z,41.81
2019-04-11T10:18:30.028Z,41.58
2019-04-11T10:19:25.586Z,41.50
2019-04-11T10:20:24.622Z,41.71
2019-04-11T10:21:25.855Z,42.74
2019-04-11T10:22:24.799Z,41.69
2019-04-11T10:23:25.041Z,41.77
2019-04-11T10:24:24.530Z,40.22
2019-04-11T10:25:25.383Z,39.91
2019-04-11T10:26:25.679Z,40.24
2019-04-11T10:27:24.715Z,40.24
2019-04-11T10:28:25.080Z,40.34
2019-04-11T10:29:25.736Z,40.10
2019-04-11T10:30:25.748Z,40.03
2019-04-11T10:31:24.461Z,40.66
2019-04-11T10:32:25.373Z,41.19
2019-04-11T10:33:24.756Z,41.39
2019-04-11T10:34:24.414Z,41.19
2019-04-11T10:35:24.412Z,41.19
2019-04-11T10:36:25.345Z,41.50
2019-04-11T10:37:25.457Z,42.22
2019-04-11T10:38:24.585Z,42.53
2019-04-11T10:39:25.014Z,42.41
2019-04-11T10:40:24.340Z,42.29
2019-04-11T10:41:25.204Z,41.15
2019-04-11T10:42:24.384Z,41.11
2019-04-11T10:43:24.607Z,40.17
2019-04-11T10:44:25.609Z,40.15
2019-04-11T10:45:24.913Z,39.63
2019-04-11T10:46:25.168Z,39.12
2019-04-11T10:47:25.016Z,39.03
2019-04-11T10:48:34.592Z,40.20
2019-04-11T10:49:26.308Z,41.25
2019-04-11T10:50:24.245Z,41.44
2019-04-11T10:51:24.644Z,41.01
2019-04-11T10:52:24.632Z,40.80
2019-04-11T10:53:24.954Z,40.08
2019-04-11T10:54:24.208Z,41.56
2019-04-11T10:55:25.299Z,41.54
2019-04-11T10:56:24.521Z,41.15
2019-04-11T10:57:24.397Z,42.30
2019-04-11T10:58:24.723Z,42.32
2019-04-11T10:59:26.531Z,42.02
2019-04-11T11:00:24.139Z,43.23
2019-04-11T11:01:25.134Z,42.11
2019-04-11T11:02:25.145Z,42.93
2019-04-11T11:03:24.397Z,42.08
2019-04-11T11:04:24.086Z,41.25
2019-04-11T11:05:24.319Z,41.38
2019-04-11T11:06:24.066Z,41.99
2019-04-11T11:07:24.637Z,42.51
2019-04-11T11:08:24.043Z,41.38
2019-04-11T11:09:24.047Z,41.79
2019-04-11T11:10:24.025Z,41.38
2019-04-11T11:11:24.166Z,41.60
2019-04-11T11:12:25.250Z,41.48
2019-04-11T11:13:24.003Z,41.27
2019-04-11T11:14:24.865Z,41.46
2019-04-11T11:15:25.222Z,41.66
2019-04-11T11:16:24.782Z,41.46
2019-04-11T11:17:47.101Z,41.75
2019-04-11T11:18:43.989Z,39.98
2019-04-11T11:19:43.637Z,41.44
2019-04-11T11:20:32.828Z,40.41
2019-04-11T11:21:27.570Z,41.25
2019-04-11T11:22:25.266Z,41.27
2019-04-11T11:23:24.670Z,41.58
2019-04-11T11:24:23.989Z,42.30
2019-04-11T11:25:24.653Z,42.10
2019-04-11T11:26:25.666Z,42.08
2019-04-11T11:27:24.415Z,42.20
2019-04-11T11:28:23.858Z,42.20
2019-04-11T11:29:24.302Z,42.08
2019-04-11T11:30:25.017Z,41.38
2019-04-11T11:31:24.420Z,41.38
2019-04-11T11:32:23.781Z,41.66
2019-04-11T11:33:25.144Z,41.15
2019-04-11T11:34:24.855Z,41.24
2019-04-11T11:35:27.671Z,40.12
2019-04-11T11:36:25.732Z,40.22
2019-04-11T11:37:24.846Z,40.22
2019-04-11T11:38:24.143Z,39.69
2019-04-11T11:39:24.735Z,40.33
2019-04-11T11:40:23.851Z,39.48
2019-04-11T11:41:24.756Z,39.29
2019-04-11T11:42:23.669Z,39.38
2019-04-11T11:43:23.666Z,39.36
2019-04-11T11:44:24.546Z,38.62
2019-04-11T11:45:23.701Z,38.50
2019-04-11T11:46:26.702Z,38.29
2019-04-11T11:47:25.845Z,37.80
2019-04-11T11:48:24.808Z,39.87
2019-04-11T11:49:41.771Z,40.94
2019-04-11T11:50:24.791Z,41.13
2019-04-11T11:51:26.944Z,41.64
2019-04-11T11:52:24.822Z,41.24
2019-04-11T11:53:25.855Z,43.11
2019-04-11T11:54:24.007Z,43.75
2019-04-11T11:55:23.527Z,43.89
2019-04-11T11:56:24.137Z,44.51
2019-04-11T11:57:23.582Z,43.87
2019-04-11T11:58:23.712Z,44.39
2019-04-11T11:59:23.502Z,44.70
2019-04-11T12:00:23.667Z,45.34
2019-04-11T12:01:24.072Z,45.53
2019-04-11T12:02:23.454Z,45.54
2019-04-11T12:03:26.512Z,45.75
2019-04-11T12:04:26.048Z,45.54
2019-04-11T12:05:26.082Z,45.21
2019-04-11T12:06:23.866Z,44.99
2019-04-11T12:07:23.392Z,44.89
2019-04-11T12:08:24.545Z,45.29
2019-04-11T12:09:24.524Z,45.73
2019-04-11T12:10:23.950Z,45.19
2019-04-11T12:11:24.089Z,46.04
2019-04-11T12:12:23.919Z,45.73
2019-04-11T12:13:23.329Z,46.25
2019-04-11T12:14:24.271Z,45.96
2019-04-11T12:15:25.701Z,46.81
2019-04-11T12:16:23.783Z,47.22
2019-04-11T12:17:23.297Z,47.32
2019-04-11T12:18:24.530Z,47.42
2019-04-11T12:19:23.344Z,48.02
2019-04-11T12:20:23.254Z,46.78
2019-04-11T12:21:26.387Z,47.38
2019-04-11T12:22:24.235Z,47.28
2019-04-11T12:23:24.204Z,47.81
2019-04-11T12:24:23.211Z,48.13
2019-04-11T12:25:23.199Z,48.52
2019-04-11T12:26:23.202Z,47.81
2019-04-11T12:27:23.175Z,47.51
2019-04-11T12:28:23.488Z,47.51
2019-04-11T12:29:24.084Z,48.65
2019-04-11T12:30:26.597Z,46.68
2019-04-11T12:31:24.185Z,46.08
2019-04-11T12:32:24.175Z,47.34
2019-04-11T12:33:23.517Z,48.17
2019-04-11T12:34:24.065Z,47.94
2019-04-11T12:35:24.700Z,45.86
2019-04-11T12:36:23.099Z,46.81
2019-04-11T12:37:23.185Z,47.61
2019-04-11T12:38:24.667Z,47.42
2019-04-11T12:39:24.842Z,47.84
2019-04-11T12:40:23.035Z,47.42
2019-04-11T12:41:23.060Z,47.30
2019-04-11T12:42:23.022Z,46.70
2019-04-11T12:43:23.012Z,48.13
2019-04-11T12:44:22.992Z,47.32
2019-04-11T12:45:22.977Z,48.05
2019-04-11T12:46:29.754Z,48.15
2019-04-11T12:47:23.964Z,48.23
2019-04-11T12:48:22.959Z,47.28
2019-04-11T12:49:22.940Z,47.80
2019-04-11T12:50:22.927Z,47.90
2019-04-11T12:51:22.916Z,46.97
2019-04-11T12:52:22.915Z,48.65
2019-04-11T12:53:23.023Z,47.30
2019-04-11T12:54:22.880Z,48.33
2019-04-11T12:55:22.877Z,48.05